sensor_id;sensor_type;location;lat;lon;timestamp;P1;durP1;ratioP1;P2;durP2;ratioP2
13171;SDS011;6651;53.200;10.432;2023-07-22T00:01:15;4.43;;;3.30;;
13171;SDS011;6651;53.200;10.432;2023-07-22T00:03:41;3.28;;;2.97;;
13171;SDS011;6651;53.200;10.432;2023-07-22T00:06:07;3.50;;;3.20;;
13171;SDS011;6651;53.200;10.432;2023-07-22T00:08:34;4.40;;;3.65;;
13171;SDS011;6651;53.200;10.432;2023-07-22T00:11:01;4.57;;;3.40;;
13171;SDS011;6651;53.200;10.432;2023-07-22T00:13:26;3.70;;;3.28;;
13171;SDS011;6651;53.200;10.432;2023-07-22T00:15:53;4.70;;;3.60;;
13171;SDS011;6651;53.200;10.432;2023-07-22T00:18:19;4.43;;;3.28;;
13171;SDS011;6651;53.200;10.432;2023-07-22T00:20:44;7.32;;;3.40;;
13171;SDS011;6651;53.200;10.432;2023-07-22T00:23:10;5.10;;;3.65;;
13171;SDS011;6651;53.200;10.432;2023-07-22T00:25:36;4.43;;;3.63;;
13171;SDS011;6651;53.200;10.432;2023-07-22T00:28:01;4.75;;;3.80;;
13171;SDS011;6651;53.200;10.432;2023-07-22T00:30:29;5.55;;;4.03;;
13171;SDS011;6651;53.200;10.432;2023-07-22T00:32:54;4.13;;;3.70;;
13171;SDS011;6651;53.200;10.432;2023-07-22T00:35:20;4.72;;;4.15;;
13171;SDS011;6651;53.200;10.432;2023-07-22T00:37:46;4.97;;;4.15;;
13171;SDS011;6651;53.200;10.432;2023-07-22T00:40:12;6.20;;;3.83;;
13171;SDS011;6651;53.200;10.432;2023-07-22T00:42:38;5.25;;;3.83;;
13171;SDS011;6651;53.200;10.432;2023-07-22T00:45:04;5.20;;;3.90;;
13171;SDS011;6651;53.200;10.432;2023-07-22T00:47:31;5.28;;;4.55;;
13171;SDS011;6651;53.200;10.432;2023-07-22T00:49:59;6.57;;;5.00;;
13171;SDS011;6651;53.200;10.432;2023-07-22T00:52:26;5.97;;;5.10;;
13171;SDS011;6651;53.200;10.432;2023-07-22T00:54:52;6.38;;;5.20;;
13171;SDS011;6651;53.200;10.432;2023-07-22T00:57:18;7.68;;;5.35;;
13171;SDS011;6651;53.200;10.432;2023-07-22T00:59:44;7.13;;;5.65;;
13171;SDS011;6651;53.200;10.432;2023-07-22T01:02:10;7.15;;;5.63;;
13171;SDS011;6651;53.200;10.432;2023-07-22T01:04:36;6.15;;;5.30;;
13171;SDS011;6651;53.200;10.432;2023-07-22T01:07:03;7.97;;;6.63;;
13171;SDS011;6651;53.200;10.432;2023-07-22T01:09:37;6.85;;;5.53;;
13171;SDS011;6651;53.200;10.432;2023-07-22T01:12:03;8.43;;;6.45;;
13171;SDS011;6651;53.200;10.432;2023-07-22T01:14:38;8.40;;;6.88;;
13171;SDS011;6651;53.200;10.432;2023-07-22T01:17:06;8.00;;;6.40;;
13171;SDS011;6651;53.200;10.432;2023-07-22T01:19:33;9.10;;;6.47;;
13171;SDS011;6651;53.200;10.432;2023-07-22T01:21:59;8.02;;;6.68;;
13171;SDS011;6651;53.200;10.432;2023-07-22T01:24:27;7.60;;;6.78;;
13171;SDS011;6651;53.200;10.432;2023-07-22T01:26:56;8.13;;;7.28;;
13171;SDS011;6651;53.200;10.432;2023-07-22T01:29:23;8.80;;;7.20;;
13171;SDS011;6651;53.200;10.432;2023-07-22T01:31:53;7.90;;;7.10;;
13171;SDS011;6651;53.200;10.432;2023-07-22T01:34:20;8.70;;;7.68;;
13171;SDS011;6651;53.200;10.432;2023-07-22T01:36:47;9.70;;;7.50;;
13171;SDS011;6651;53.200;10.432;2023-07-22T01:39:13;9.20;;;7.50;;
13171;SDS011;6651;53.200;10.432;2023-07-22T01:41:40;9.70;;;8.05;;
13171;SDS011;6651;53.200;10.432;2023-07-22T01:44:06;9.63;;;8.07;;
13171;SDS011;6651;53.200;10.432;2023-07-22T01:46:32;9.65;;;7.65;;
13171;SDS011;6651;53.200;10.432;2023-07-22T01:48:58;8.45;;;7.53;;
13171;SDS011;6651;53.200;10.432;2023-07-22T01:51:24;8.43;;;7.35;;
13171;SDS011;6651;53.200;10.432;2023-07-22T01:53:50;9.13;;;7.47;;
13171;SDS011;6651;53.200;10.432;2023-07-22T01:56:16;9.43;;;8.40;;
13171;SDS011;6651;53.200;10.432;2023-07-22T01:58:42;9.68;;;7.13;;
13171;SDS011;6651;53.200;10.432;2023-07-22T02:01:08;9.35;;;7.70;;
13171;SDS011;6651;53.200;10.432;2023-07-22T02:03:33;8.55;;;7.25;;
13171;SDS011;6651;53.200;10.432;2023-07-22T02:06:02;9.90;;;7.78;;
13171;SDS011;6651;53.200;10.432;2023-07-22T02:08:28;9.40;;;8.00;;
13171;SDS011;6651;53.200;10.432;2023-07-22T02:10:54;10.15;;;7.95;;
13171;SDS011;6651;53.200;10.432;2023-07-22T02:13:20;9.52;;;8.18;;
13171;SDS011;6651;53.200;10.432;2023-07-22T02:15:46;10.77;;;9.00;;
13171;SDS011;6651;53.200;10.432;2023-07-22T02:18:12;10.38;;;8.63;;
13171;SDS011;6651;53.200;10.432;2023-07-22T02:20:38;10.30;;;8.80;;
13171;SDS011;6651;53.200;10.432;2023-07-22T02:23:07;11.02;;;9.75;;
13171;SDS011;6651;53.200;10.432;2023-07-22T02:25:32;13.18;;;9.15;;
13171;SDS011;6651;53.200;10.432;2023-07-22T02:27:58;9.85;;;8.85;;
13171;SDS011;6651;53.200;10.432;2023-07-22T02:30:24;14.32;;;8.98;;
13171;SDS011;6651;53.200;10.432;2023-07-22T02:32:49;10.85;;;8.90;;
13171;SDS011;6651;53.200;10.432;2023-07-22T02:35:15;11.75;;;9.25;;
13171;SDS011;6651;53.200;10.432;2023-07-22T02:37:41;11.27;;;9.07;;
13171;SDS011;6651;53.200;10.432;2023-07-22T02:40:07;11.50;;;8.85;;
13171;SDS011;6651;53.200;10.432;2023-07-22T02:42:33;12.48;;;9.40;;
13171;SDS011;6651;53.200;10.432;2023-07-22T02:45:00;12.13;;;9.05;;
13171;SDS011;6651;53.200;10.432;2023-07-22T02:47:26;11.63;;;9.07;;
13171;SDS011;6651;53.200;10.432;2023-07-22T02:49:53;10.65;;;8.65;;
13171;SDS011;6651;53.200;10.432;2023-07-22T02:52:19;11.25;;;8.40;;
13171;SDS011;6651;53.200;10.432;2023-07-22T02:54:53;11.77;;;8.80;;
13171;SDS011;6651;53.200;10.432;2023-07-22T02:57:39;11.35;;;8.73;;
13171;SDS011;6651;53.200;10.432;2023-07-22T03:00:06;13.05;;;9.23;;
13171;SDS011;6651;53.200;10.432;2023-07-22T03:02:36;11.90;;;8.63;;
13171;SDS011;6651;53.200;10.432;2023-07-22T03:05:06;11.45;;;8.18;;
13171;SDS011;6651;53.200;10.432;2023-07-22T03:07:37;12.00;;;9.02;;
13171;SDS011;6651;53.200;10.432;2023-07-22T03:10:04;10.85;;;8.23;;
13171;SDS011;6651;53.200;10.432;2023-07-22T03:12:31;13.52;;;9.57;;
13171;SDS011;6651;53.200;10.432;2023-07-22T03:14:57;13.75;;;8.95;;
13171;SDS011;6651;53.200;10.432;2023-07-22T03:17:23;11.93;;;9.18;;
13171;SDS011;6651;53.200;10.432;2023-07-22T03:19:49;11.30;;;8.38;;
13171;SDS011;6651;53.200;10.432;2023-07-22T03:22:15;13.38;;;8.90;;
13171;SDS011;6651;53.200;10.432;2023-07-22T03:24:46;10.40;;;8.20;;
13171;SDS011;6651;53.200;10.432;2023-07-22T03:27:13;10.32;;;8.45;;
13171;SDS011;6651;53.200;10.432;2023-07-22T03:29:40;14.02;;;8.63;;
13171;SDS011;6651;53.200;10.432;2023-07-22T03:32:06;13.35;;;8.93;;
13171;SDS011;6651;53.200;10.432;2023-07-22T03:34:32;12.02;;;9.32;;
13171;SDS011;6651;53.200;10.432;2023-07-22T03:36:58;13.52;;;9.20;;
13171;SDS011;6651;53.200;10.432;2023-07-22T03:39:24;13.77;;;8.82;;
13171;SDS011;6651;53.200;10.432;2023-07-22T03:41:50;14.38;;;9.25;;
13171;SDS011;6651;53.200;10.432;2023-07-22T03:44:15;13.50;;;9.05;;
13171;SDS011;6651;53.200;10.432;2023-07-22T03:46:41;13.60;;;9.10;;
13171;SDS011;6651;53.200;10.432;2023-07-22T03:49:07;12.40;;;9.27;;
13171;SDS011;6651;53.200;10.432;2023-07-22T03:51:33;14.10;;;10.05;;
13171;SDS011;6651;53.200;10.432;2023-07-22T03:53:59;15.85;;;9.93;;
13171;SDS011;6651;53.200;10.432;2023-07-22T03:56:24;13.93;;;9.98;;
13171;SDS011;6651;53.200;10.432;2023-07-22T03:58:51;13.93;;;10.07;;
13171;SDS011;6651;53.200;10.432;2023-07-22T04:01:17;13.75;;;9.57;;
13171;SDS011;6651;53.200;10.432;2023-07-22T04:03:43;12.20;;;9.48;;
13171;SDS011;6651;53.200;10.432;2023-07-22T04:06:09;12.90;;;9.95;;
13171;SDS011;6651;53.200;10.432;2023-07-22T04:08:34;15.55;;;10.52;;
13171;SDS011;6651;53.200;10.432;2023-07-22T04:11:00;14.73;;;10.15;;
13171;SDS011;6651;53.200;10.432;2023-07-22T04:13:26;16.13;;;10.07;;
13171;SDS011;6651;53.200;10.432;2023-07-22T04:15:52;15.02;;;10.05;;
13171;SDS011;6651;53.200;10.432;2023-07-22T04:18:18;13.65;;;9.35;;
13171;SDS011;6651;53.200;10.432;2023-07-22T04:20:45;15.43;;;9.75;;
13171;SDS011;6651;53.200;10.432;2023-07-22T04:23:13;14.18;;;9.82;;
13171;SDS011;6651;53.200;10.432;2023-07-22T04:25:39;16.70;;;10.10;;
13171;SDS011;6651;53.200;10.432;2023-07-22T04:28:05;16.58;;;10.55;;
13171;SDS011;6651;53.200;10.432;2023-07-22T04:30:31;13.32;;;10.50;;
13171;SDS011;6651;53.200;10.432;2023-07-22T04:32:57;13.57;;;10.05;;
13171;SDS011;6651;53.200;10.432;2023-07-22T04:35:23;15.13;;;10.15;;
13171;SDS011;6651;53.200;10.432;2023-07-22T04:37:49;13.20;;;10.25;;
13171;SDS011;6651;53.200;10.432;2023-07-22T04:40:14;13.77;;;10.20;;
13171;SDS011;6651;53.200;10.432;2023-07-22T04:42:42;13.73;;;9.98;;
13171;SDS011;6651;53.200;10.432;2023-07-22T04:45:08;14.27;;;9.68;;
13171;SDS011;6651;53.200;10.432;2023-07-22T04:47:35;14.32;;;9.15;;
13171;SDS011;6651;53.200;10.432;2023-07-22T04:50:01;19.42;;;10.82;;
13171;SDS011;6651;53.200;10.432;2023-07-22T04:52:28;13.13;;;10.20;;
13171;SDS011;6651;53.200;10.432;2023-07-22T04:54:55;12.15;;;9.15;;
13171;SDS011;6651;53.200;10.432;2023-07-22T04:57:21;12.77;;;9.73;;
13171;SDS011;6651;53.200;10.432;2023-07-22T04:59:46;14.25;;;9.45;;
13171;SDS011;6651;53.200;10.432;2023-07-22T05:02:12;14.70;;;9.95;;
13171;SDS011;6651;53.200;10.432;2023-07-22T05:04:38;12.07;;;9.70;;
13171;SDS011;6651;53.200;10.432;2023-07-22T05:07:03;16.75;;;10.20;;
13171;SDS011;6651;53.200;10.432;2023-07-22T05:09:29;11.77;;;10.10;;
13171;SDS011;6651;53.200;10.432;2023-07-22T05:11:55;14.70;;;9.82;;
13171;SDS011;6651;53.200;10.432;2023-07-22T05:14:21;15.65;;;10.15;;
13171;SDS011;6651;53.200;10.432;2023-07-22T05:16:46;12.98;;;9.55;;
13171;SDS011;6651;53.200;10.432;2023-07-22T05:19:12;15.15;;;9.88;;
13171;SDS011;6651;53.200;10.432;2023-07-22T05:21:37;13.30;;;10.10;;
13171;SDS011;6651;53.200;10.432;2023-07-22T05:24:03;15.23;;;10.02;;
13171;SDS011;6651;53.200;10.432;2023-07-22T05:26:29;12.93;;;9.60;;
13171;SDS011;6651;53.200;10.432;2023-07-22T05:28:56;14.25;;;9.50;;
13171;SDS011;6651;53.200;10.432;2023-07-22T05:31:21;14.75;;;9.32;;
13171;SDS011;6651;53.200;10.432;2023-07-22T05:33:47;12.80;;;9.35;;
13171;SDS011;6651;53.200;10.432;2023-07-22T05:36:13;12.20;;;9.23;;
13171;SDS011;6651;53.200;10.432;2023-07-22T05:38:38;14.73;;;9.13;;
13171;SDS011;6651;53.200;10.432;2023-07-22T05:41:04;12.32;;;9.00;;
13171;SDS011;6651;53.200;10.432;2023-07-22T05:43:30;12.45;;;9.95;;
13171;SDS011;6651;53.200;10.432;2023-07-22T05:45:55;11.20;;;8.38;;
13171;SDS011;6651;53.200;10.432;2023-07-22T05:48:21;14.25;;;9.40;;
13171;SDS011;6651;53.200;10.432;2023-07-22T05:50:47;12.80;;;9.18;;
13171;SDS011;6651;53.200;10.432;2023-07-22T05:53:13;13.27;;;9.20;;
13171;SDS011;6651;53.200;10.432;2023-07-22T05:55:38;10.65;;;8.38;;
13171;SDS011;6651;53.200;10.432;2023-07-22T05:58:04;11.40;;;8.20;;
13171;SDS011;6651;53.200;10.432;2023-07-22T06:00:31;12.88;;;8.25;;
13171;SDS011;6651;53.200;10.432;2023-07-22T06:03:00;11.18;;;7.72;;
13171;SDS011;6651;53.200;10.432;2023-07-22T06:05:26;10.20;;;8.43;;
13171;SDS011;6651;53.200;10.432;2023-07-22T06:07:51;10.55;;;8.10;;
13171;SDS011;6651;53.200;10.432;2023-07-22T06:10:17;11.32;;;7.95;;
13171;SDS011;6651;53.200;10.432;2023-07-22T06:12:43;9.93;;;7.72;;
13171;SDS011;6651;53.200;10.432;2023-07-22T06:15:09;9.60;;;8.10;;
13171;SDS011;6651;53.200;10.432;2023-07-22T06:17:34;12.10;;;7.80;;
13171;SDS011;6651;53.200;10.432;2023-07-22T06:20:00;10.63;;;8.02;;
13171;SDS011;6651;53.200;10.432;2023-07-22T06:22:26;9.70;;;7.60;;
13171;SDS011;6651;53.200;10.432;2023-07-22T06:24:52;10.45;;;7.85;;
13171;SDS011;6651;53.200;10.432;2023-07-22T06:27:17;9.98;;;8.02;;
13171;SDS011;6651;53.200;10.432;2023-07-22T06:29:43;10.82;;;8.25;;
13171;SDS011;6651;53.200;10.432;2023-07-22T06:32:09;11.30;;;7.75;;
13171;SDS011;6651;53.200;10.432;2023-07-22T06:34:35;10.30;;;8.05;;
13171;SDS011;6651;53.200;10.432;2023-07-22T06:37:00;10.25;;;7.80;;
13171;SDS011;6651;53.200;10.432;2023-07-22T06:39:26;9.88;;;8.05;;
13171;SDS011;6651;53.200;10.432;2023-07-22T06:41:52;11.00;;;8.23;;
13171;SDS011;6651;53.200;10.432;2023-07-22T06:44:17;9.65;;;7.90;;
13171;SDS011;6651;53.200;10.432;2023-07-22T06:46:43;9.98;;;8.00;;
13171;SDS011;6651;53.200;10.432;2023-07-22T06:49:09;10.75;;;8.25;;
13171;SDS011;6651;53.200;10.432;2023-07-22T06:51:35;9.98;;;7.53;;
13171;SDS011;6651;53.200;10.432;2023-07-22T06:54:02;9.77;;;6.93;;
13171;SDS011;6651;53.200;10.432;2023-07-22T06:56:27;9.00;;;6.88;;
13171;SDS011;6651;53.200;10.432;2023-07-22T06:58:53;8.85;;;6.80;;
13171;SDS011;6651;53.200;10.432;2023-07-22T07:01:19;8.23;;;7.00;;
13171;SDS011;6651;53.200;10.432;2023-07-22T07:03:44;8.07;;;6.40;;
13171;SDS011;6651;53.200;10.432;2023-07-22T07:06:11;7.68;;;6.35;;
13171;SDS011;6651;53.200;10.432;2023-07-22T07:08:37;11.60;;;6.78;;
13171;SDS011;6651;53.200;10.432;2023-07-22T07:11:02;8.65;;;6.30;;
13171;SDS011;6651;53.200;10.432;2023-07-22T07:13:28;7.03;;;6.03;;
13171;SDS011;6651;53.200;10.432;2023-07-22T07:15:54;8.23;;;6.32;;
13171;SDS011;6651;53.200;10.432;2023-07-22T07:18:20;9.02;;;6.00;;
13171;SDS011;6651;53.200;10.432;2023-07-22T07:20:45;11.35;;;6.38;;
13171;SDS011;6651;53.200;10.432;2023-07-22T07:23:12;7.50;;;5.78;;
13171;SDS011;6651;53.200;10.432;2023-07-22T07:25:38;7.55;;;5.75;;
13171;SDS011;6651;53.200;10.432;2023-07-22T07:28:04;7.88;;;5.60;;
13171;SDS011;6651;53.200;10.432;2023-07-22T07:30:30;8.13;;;5.68;;
13171;SDS011;6651;53.200;10.432;2023-07-22T07:32:56;8.15;;;5.65;;
13171;SDS011;6651;53.200;10.432;2023-07-22T07:35:21;7.20;;;5.53;;
13171;SDS011;6651;53.200;10.432;2023-07-22T07:37:47;6.63;;;4.95;;
13171;SDS011;6651;53.200;10.432;2023-07-22T07:40:13;5.72;;;4.07;;
13171;SDS011;6651;53.200;10.432;2023-07-22T07:42:38;6.40;;;4.47;;
13171;SDS011;6651;53.200;10.432;2023-07-22T07:45:04;6.05;;;4.15;;
13171;SDS011;6651;53.200;10.432;2023-07-22T07:47:30;6.15;;;3.92;;
13171;SDS011;6651;53.200;10.432;2023-07-22T07:49:56;7.18;;;4.22;;
13171;SDS011;6651;53.200;10.432;2023-07-22T07:52:22;5.88;;;4.07;;
13171;SDS011;6651;53.200;10.432;2023-07-22T07:54:47;6.68;;;4.35;;
13171;SDS011;6651;53.200;10.432;2023-07-22T07:57:13;5.50;;;3.83;;
13171;SDS011;6651;53.200;10.432;2023-07-22T07:59:39;5.55;;;3.97;;
13171;SDS011;6651;53.200;10.432;2023-07-22T08:02:04;7.22;;;3.55;;
13171;SDS011;6651;53.200;10.432;2023-07-22T08:04:34;5.95;;;3.60;;
13171;SDS011;6651;53.200;10.432;2023-07-22T08:06:59;6.35;;;3.55;;
13171;SDS011;6651;53.200;10.432;2023-07-22T08:09:25;5.07;;;3.15;;
13171;SDS011;6651;53.200;10.432;2023-07-22T08:11:51;5.05;;;3.80;;
13171;SDS011;6651;53.200;10.432;2023-07-22T08:14:16;6.63;;;3.72;;
13171;SDS011;6651;53.200;10.432;2023-07-22T08:16:43;5.70;;;3.60;;
13171;SDS011;6651;53.200;10.432;2023-07-22T08:19:09;7.00;;;3.80;;
13171;SDS011;6651;53.200;10.432;2023-07-22T08:21:35;6.57;;;3.40;;
13171;SDS011;6651;53.200;10.432;2023-07-22T08:24:00;5.13;;;3.35;;
13171;SDS011;6651;53.200;10.432;2023-07-22T08:26:26;3.47;;;2.88;;
13171;SDS011;6651;53.200;10.432;2023-07-22T08:28:52;5.45;;;2.83;;
13171;SDS011;6651;53.200;10.432;2023-07-22T08:31:18;4.22;;;2.63;;
13171;SDS011;6651;53.200;10.432;2023-07-22T08:33:43;4.90;;;2.80;;
13171;SDS011;6651;53.200;10.432;2023-07-22T08:36:09;3.25;;;2.28;;
13171;SDS011;6651;53.200;10.432;2023-07-22T08:38:35;4.38;;;2.47;;
13171;SDS011;6651;53.200;10.432;2023-07-22T08:41:01;5.03;;;2.30;;
13171;SDS011;6651;53.200;10.432;2023-07-22T08:43:27;3.88;;;2.40;;
13171;SDS011;6651;53.200;10.432;2023-07-22T08:45:53;3.92;;;2.30;;
13171;SDS011;6651;53.200;10.432;2023-07-22T08:48:21;3.65;;;2.25;;
13171;SDS011;6651;53.200;10.432;2023-07-22T08:53:37;2.95;;;2.30;;
13171;SDS011;6651;53.200;10.432;2023-07-22T08:56:03;3.45;;;2.10;;
13171;SDS011;6651;53.200;10.432;2023-07-22T08:58:29;4.70;;;2.28;;
13171;SDS011;6651;53.200;10.432;2023-07-22T09:00:56;3.90;;;2.50;;
13171;SDS011;6651;53.200;10.432;2023-07-22T09:03:23;3.60;;;2.22;;
13171;SDS011;6651;53.200;10.432;2023-07-22T09:05:49;3.80;;;2.80;;
13171;SDS011;6651;53.200;10.432;2023-07-22T09:08:15;2.60;;;2.33;;
13171;SDS011;6651;53.200;10.432;2023-07-22T09:10:42;4.53;;;2.30;;
13171;SDS011;6651;53.200;10.432;2023-07-22T09:13:08;3.67;;;2.20;;
13171;SDS011;6651;53.200;10.432;2023-07-22T09:15:35;2.38;;;2.17;;
13171;SDS011;6651;53.200;10.432;2023-07-22T09:18:01;2.25;;;2.05;;
13171;SDS011;6651;53.200;10.432;2023-07-22T09:20:30;5.30;;;2.63;;
13171;SDS011;6651;53.200;10.432;2023-07-22T09:22:56;4.10;;;2.70;;
13171;SDS011;6651;53.200;10.432;2023-07-22T09:25:25;5.45;;;2.28;;
13171;SDS011;6651;53.200;10.432;2023-07-22T09:27:52;3.78;;;2.60;;
13171;SDS011;6651;53.200;10.432;2023-07-22T09:32:49;3.13;;;2.40;;
13171;SDS011;6651;53.200;10.432;2023-07-22T09:35:16;4.22;;;2.13;;
13171;SDS011;6651;53.200;10.432;2023-07-22T09:37:43;3.65;;;2.05;;
13171;SDS011;6651;53.200;10.432;2023-07-22T09:42:49;3.25;;;2.20;;
13171;SDS011;6651;53.200;10.432;2023-07-22T09:45:17;3.47;;;2.00;;
13171;SDS011;6651;53.200;10.432;2023-07-22T09:47:44;2.70;;;2.00;;
13171;SDS011;6651;53.200;10.432;2023-07-22T09:50:15;2.42;;;2.00;;
13171;SDS011;6651;53.200;10.432;2023-07-22T09:52:47;2.95;;;2.17;;
13171;SDS011;6651;53.200;10.432;2023-07-22T09:55:15;2.25;;;1.90;;
13171;SDS011;6651;53.200;10.432;2023-07-22T09:57:46;2.80;;;1.95;;
13171;SDS011;6651;53.200;10.432;2023-07-22T10:00:18;2.70;;;2.00;;
13171;SDS011;6651;53.200;10.432;2023-07-22T10:02:47;2.45;;;1.90;;
13171;SDS011;6651;53.200;10.432;2023-07-22T10:05:15;4.18;;;1.90;;
13171;SDS011;6651;53.200;10.432;2023-07-22T10:07:52;3.63;;;1.88;;
13171;SDS011;6651;53.200;10.432;2023-07-22T10:10:23;3.80;;;2.10;;
13171;SDS011;6651;53.200;10.432;2023-07-22T10:12:52;3.03;;;1.92;;
13171;SDS011;6651;53.200;10.432;2023-07-22T10:15:19;3.47;;;2.10;;
13171;SDS011;6651;53.200;10.432;2023-07-22T10:17:44;2.67;;;2.10;;
13171;SDS011;6651;53.200;10.432;2023-07-22T10:20:11;3.67;;;2.00;;
13171;SDS011;6651;53.200;10.432;2023-07-22T10:22:44;2.40;;;2.20;;
13171;SDS011;6651;53.200;10.432;2023-07-22T10:25:12;3.10;;;2.38;;
13171;SDS011;6651;53.200;10.432;2023-07-22T10:27:39;3.22;;;2.20;;
13171;SDS011;6651;53.200;10.432;2023-07-22T10:30:07;2.45;;;2.20;;
13171;SDS011;6651;53.200;10.432;2023-07-22T10:32:40;3.33;;;2.35;;
13171;SDS011;6651;53.200;10.432;2023-07-22T10:35:08;3.80;;;2.25;;
13171;SDS011;6651;53.200;10.432;2023-07-22T10:37:40;3.03;;;2.30;;
13171;SDS011;6651;53.200;10.432;2023-07-22T10:42:57;3.25;;;2.15;;
13171;SDS011;6651;53.200;10.432;2023-07-22T10:45:28;2.72;;;2.33;;
13171;SDS011;6651;53.200;10.432;2023-07-22T10:50:40;2.70;;;2.42;;
13171;SDS011;6651;53.200;10.432;2023-07-22T11:04:05;3.35;;;2.83;;
13171;SDS011;6651;53.200;10.432;2023-07-22T11:11:59;3.28;;;2.83;;
13171;SDS011;6651;53.200;10.432;2023-07-22T11:14:28;4.88;;;2.90;;
13171;SDS011;6651;53.200;10.432;2023-07-22T11:16:59;3.95;;;2.90;;
13171;SDS011;6651;53.200;10.432;2023-07-22T11:19:28;3.78;;;3.00;;
13171;SDS011;6651;53.200;10.432;2023-07-22T11:21:55;4.18;;;3.72;;
13171;SDS011;6651;53.200;10.432;2023-07-22T11:24:22;5.38;;;3.75;;
13171;SDS011;6651;53.200;10.432;2023-07-22T11:26:49;4.82;;;3.50;;
13171;SDS011;6651;53.200;10.432;2023-07-22T11:29:16;4.97;;;3.72;;
13171;SDS011;6651;53.200;10.432;2023-07-22T11:31:43;4.25;;;3.80;;
13171;SDS011;6651;53.200;10.432;2023-07-22T11:34:28;4.03;;;3.60;;
13171;SDS011;6651;53.200;10.432;2023-07-22T11:36:55;4.55;;;3.70;;
13171;SDS011;6651;53.200;10.432;2023-07-22T11:39:22;4.35;;;3.60;;
13171;SDS011;6651;53.200;10.432;2023-07-22T11:41:49;6.05;;;3.92;;
13171;SDS011;6651;53.200;10.432;2023-07-22T11:44:16;5.18;;;3.85;;
13171;SDS011;6651;53.200;10.432;2023-07-22T11:46:57;5.30;;;3.83;;
13171;SDS011;6651;53.200;10.432;2023-07-22T11:49:23;4.15;;;3.75;;
13171;SDS011;6651;53.200;10.432;2023-07-22T11:51:50;5.43;;;3.85;;
13171;SDS011;6651;53.200;10.432;2023-07-22T11:54:16;4.93;;;3.88;;
13171;SDS011;6651;53.200;10.432;2023-07-22T11:56:43;4.78;;;3.80;;
13171;SDS011;6651;53.200;10.432;2023-07-22T11:59:08;4.63;;;4.13;;
13171;SDS011;6651;53.200;10.432;2023-07-22T12:01:34;5.60;;;4.25;;
13171;SDS011;6651;53.200;10.432;2023-07-22T12:04:00;5.10;;;4.30;;
13171;SDS011;6651;53.200;10.432;2023-07-22T12:06:26;5.32;;;4.20;;
13171;SDS011;6651;53.200;10.432;2023-07-22T12:08:52;4.53;;;4.07;;
13171;SDS011;6651;53.200;10.432;2023-07-22T12:11:27;5.75;;;3.95;;
13171;SDS011;6651;53.200;10.432;2023-07-22T12:14:04;5.38;;;4.15;;
13171;SDS011;6651;53.200;10.432;2023-07-22T12:16:35;6.57;;;4.47;;
13171;SDS011;6651;53.200;10.432;2023-07-22T12:19:02;6.50;;;4.80;;
13171;SDS011;6651;53.200;10.432;2023-07-22T12:21:28;5.78;;;4.15;;
13171;SDS011;6651;53.200;10.432;2023-07-22T12:23:53;5.25;;;4.45;;
13171;SDS011;6651;53.200;10.432;2023-07-22T12:26:19;5.80;;;4.75;;
13171;SDS011;6651;53.200;10.432;2023-07-22T12:28:45;6.20;;;4.93;;
13171;SDS011;6651;53.200;10.432;2023-07-22T12:31:11;5.85;;;4.88;;
13171;SDS011;6651;53.200;10.432;2023-07-22T12:33:37;6.90;;;4.82;;
13171;SDS011;6651;53.200;10.432;2023-07-22T12:36:03;6.10;;;4.68;;
13171;SDS011;6651;53.200;10.432;2023-07-22T12:38:30;6.90;;;5.47;;
13171;SDS011;6651;53.200;10.432;2023-07-22T12:40:56;6.20;;;5.18;;
13171;SDS011;6651;53.200;10.432;2023-07-22T12:43:21;6.45;;;4.38;;
13171;SDS011;6651;53.200;10.432;2023-07-22T12:45:47;5.95;;;4.45;;
13171;SDS011;6651;53.200;10.432;2023-07-22T12:48:13;6.72;;;4.97;;
13171;SDS011;6651;53.200;10.432;2023-07-22T12:50:39;5.10;;;4.22;;
13171;SDS011;6651;53.200;10.432;2023-07-22T12:53:04;5.43;;;4.40;;
13171;SDS011;6651;53.200;10.432;2023-07-22T12:55:30;5.55;;;4.88;;
13171;SDS011;6651;53.200;10.432;2023-07-22T12:57:56;6.35;;;4.03;;
13171;SDS011;6651;53.200;10.432;2023-07-22T13:00:25;7.70;;;4.78;;
13171;SDS011;6651;53.200;10.432;2023-07-22T13:02:51;5.80;;;4.82;;
13171;SDS011;6651;53.200;10.432;2023-07-22T13:05:18;6.35;;;4.90;;
13171;SDS011;6651;53.200;10.432;2023-07-22T13:07:44;6.07;;;4.95;;
13171;SDS011;6651;53.200;10.432;2023-07-22T13:10:09;5.00;;;4.47;;
13171;SDS011;6651;53.200;10.432;2023-07-22T13:12:37;6.50;;;4.55;;
13171;SDS011;6651;53.200;10.432;2023-07-22T13:15:04;5.03;;;4.40;;
13171;SDS011;6651;53.200;10.432;2023-07-22T13:17:30;6.07;;;3.95;;
13171;SDS011;6651;53.200;10.432;2023-07-22T13:19:56;5.22;;;4.38;;
13171;SDS011;6651;53.200;10.432;2023-07-22T13:22:22;5.00;;;4.50;;
13171;SDS011;6651;53.200;10.432;2023-07-22T13:24:48;5.90;;;4.25;;
13171;SDS011;6651;53.200;10.432;2023-07-22T13:27:14;5.00;;;4.30;;
13171;SDS011;6651;53.200;10.432;2023-07-22T13:29:39;5.85;;;4.47;;
13171;SDS011;6651;53.200;10.432;2023-07-22T13:32:05;5.05;;;4.53;;
13171;SDS011;6651;53.200;10.432;2023-07-22T13:34:31;5.90;;;4.30;;
13171;SDS011;6651;53.200;10.432;2023-07-22T13:36:57;4.80;;;4.20;;
13171;SDS011;6651;53.200;10.432;2023-07-22T13:39:23;5.75;;;4.43;;
13171;SDS011;6651;53.200;10.432;2023-07-22T13:41:48;5.78;;;4.22;;
13171;SDS011;6651;53.200;10.432;2023-07-22T13:44:15;5.32;;;4.40;;
13171;SDS011;6651;53.200;10.432;2023-07-22T13:46:41;4.78;;;4.10;;
13171;SDS011;6651;53.200;10.432;2023-07-22T13:49:07;5.47;;;4.18;;
13171;SDS011;6651;53.200;10.432;2023-07-22T13:51:33;5.78;;;4.40;;
13171;SDS011;6651;53.200;10.432;2023-07-22T13:53:58;5.70;;;4.30;;
13171;SDS011;6651;53.200;10.432;2023-07-22T13:56:24;5.55;;;4.32;;
13171;SDS011;6651;53.200;10.432;2023-07-22T13:58:50;5.55;;;4.00;;
13171;SDS011;6651;53.200;10.432;2023-07-22T14:01:15;4.78;;;4.28;;
13171;SDS011;6651;53.200;10.432;2023-07-22T14:03:41;4.57;;;3.65;;
13171;SDS011;6651;53.200;10.432;2023-07-22T14:06:07;5.20;;;3.90;;
13171;SDS011;6651;53.200;10.432;2023-07-22T14:08:33;4.75;;;3.72;;
13171;SDS011;6651;53.200;10.432;2023-07-22T14:10:59;4.15;;;3.60;;
13171;SDS011;6651;53.200;10.432;2023-07-22T14:13:24;4.72;;;4.20;;
13171;SDS011;6651;53.200;10.432;2023-07-22T14:15:50;4.65;;;3.83;;
13171;SDS011;6651;53.200;10.432;2023-07-22T14:18:17;4.57;;;3.58;;
13171;SDS011;6651;53.200;10.432;2023-07-22T14:20:44;4.85;;;3.95;;
13171;SDS011;6651;53.200;10.432;2023-07-22T14:23:10;4.70;;;3.63;;
13171;SDS011;6651;53.200;10.432;2023-07-22T14:25:36;5.03;;;3.70;;
13171;SDS011;6651;53.200;10.432;2023-07-22T14:28:02;5.03;;;3.63;;
13171;SDS011;6651;53.200;10.432;2023-07-22T14:30:28;4.35;;;3.60;;
13171;SDS011;6651;53.200;10.432;2023-07-22T14:32:54;4.28;;;3.40;;
13171;SDS011;6651;53.200;10.432;2023-07-22T14:35:20;3.95;;;3.33;;
13171;SDS011;6651;53.200;10.432;2023-07-22T14:37:46;4.47;;;3.63;;
13171;SDS011;6651;53.200;10.432;2023-07-22T14:40:12;5.18;;;3.38;;
13171;SDS011;6651;53.200;10.432;2023-07-22T14:42:38;3.72;;;3.35;;
13171;SDS011;6651;53.200;10.432;2023-07-22T14:45:03;5.65;;;3.95;;
13171;SDS011;6651;53.200;10.432;2023-07-22T14:47:30;5.53;;;4.50;;
13171;SDS011;6651;53.200;10.432;2023-07-22T14:49:56;8.05;;;4.55;;
13171;SDS011;6651;53.200;10.432;2023-07-22T14:52:22;5.50;;;4.10;;
13171;SDS011;6651;53.200;10.432;2023-07-22T14:54:48;4.85;;;3.97;;
13171;SDS011;6651;53.200;10.432;2023-07-22T14:57:14;5.57;;;4.80;;
13171;SDS011;6651;53.200;10.432;2023-07-22T14:59:40;4.80;;;4.03;;
13171;SDS011;6651;53.200;10.432;2023-07-22T15:02:06;5.60;;;4.55;;
13171;SDS011;6651;53.200;10.432;2023-07-22T15:04:31;5.60;;;4.55;;
13171;SDS011;6651;53.200;10.432;2023-07-22T15:06:57;6.28;;;4.60;;
13171;SDS011;6651;53.200;10.432;2023-07-22T15:09:23;5.18;;;4.10;;